Time;durP1;ratioP1;P1;durP2;ratioP2;P2;SDS_P1;SDS_P2;PMS_P1;PMS_P2;Temp;Humidity;BMP_temperature;BMP_pressure;BME280_temperature;BME280_humidity;BME280_pressure;Samples;Min_cycle;Max_cycle;Signal;HPM_P1;HPM_P2
2023/12/20 00:02:00;;;;;;;9.80;8.18;;;6.70;1.00;;;;;;5043320;28;20199;-86
2023/12/20 00:04:27;;;;;;;9.38;7.50;;;6.70;1.00;;;;;;5043257;28;20208;-87
2023/12/20 00:06:54;;;;;;;8.32;7.53;;;6.70;1.00;;;;;;5043813;28;20644;-86
2023/12/20 00:09:20;;;;;;;9.40;8.13;;;6.70;1.00;;;;;;5054389;28;20207;-84
2023/12/20 00:11:47;;;;;;;8.20;7.40;;;6.70;1.00;;;;;;5060649;28;20204;-86
2023/12/20 00:14:16;;;;;;;9.68;8.38;;;6.60;1.00;;;;;;5060896;28;20196;-83
2023/12/20 00:16:43;;;;;;;9.05;8.15;;;6.60;1.00;;;;;;5060754;28;20223;-86
2023/12/20 00:19:12;;;;;;;8.40;7.57;;;6.70;1.00;;;;;;5060736;28;20212;-85
2023/12/20 00:21:38;;;;;;;10.20;8.35;;;6.70;1.00;;;;;;5060651;28;20419;-85
2023/12/20 00:24:06;;;;;;;10.02;8.05;;;6.70;1.00;;;;;;5060190;28;20206;-85
2023/12/20 00:26:36;;;;;;;9.20;8.23;;;6.70;1.00;;;;;;5059706;28;20256;-85
2023/12/20 00:29:03;;;;;;;8.68;7.63;;;6.70;1.00;;;;;;5057355;28;20218;-85
2023/12/20 00:31:31;;;;;;;9.07;8.10;;;6.70;1.00;;;;;;5053719;28;20279;-86
2023/12/20 00:33:58;;;;;;;11.05;8.00;;;6.70;1.00;;;;;;5049635;28;20291;-85
2023/12/20 00:36:25;;;;;;;8.27;7.47;;;6.70;1.00;;;;;;5047301;28;20281;-86
2023/12/20 00:38:52;;;;;;;8.55;7.65;;;6.70;1.00;;;;;;5045829;28;20208;-87
2023/12/20 00:41:19;;;;;;;8.57;7.03;;;6.70;1.00;;;;;;5044171;28;20218;-87
2023/12/20 00:43:46;;;;;;;8.30;7.10;;;6.70;1.00;;;;;;5040138;28;20298;-87
2023/12/20 00:46:13;;;;;;;8.30;7.43;;;6.70;1.00;;;;;;5039846;28;20658;-86
2023/12/20 00:48:49;;;;;;;7.90;7.05;;;6.70;1.00;;;;;;5040274;28;20208;-86
2023/12/20 00:51:16;;;;;;;8.25;6.78;;;6.70;1.00;;;;;;5040193;28;20223;-86
2023/12/20 00:53:43;;;;;;;9.40;7.75;;;6.70;1.00;;;;;;5040898;28;20294;-86
2023/12/20 00:56:10;;;;;;;8.88;7.43;;;6.70;1.00;;;;;;5040267;28;20227;-86
2023/12/20 00:58:37;;;;;;;7.47;6.72;;;6.70;1.00;;;;;;5039480;28;20592;-85
2023/12/20 01:01:04;;;;;;;7.05;6.43;;;6.70;1.00;;;;;;5048058;28;20294;-85
2023/12/20 01:03:31;;;;;;;5.95;5.35;;;6.70;1.00;;;;;;5057231;28;20211;-85
2023/12/20 01:05:59;;;;;;;6.35;5.75;;;6.70;1.00;;;;;;5056735;28;20223;-86
2023/12/20 01:08:26;;;;;;;7.40;6.60;;;6.70;1.00;;;;;;5057166;28;20215;-86
2023/12/20 01:10:53;;;;;;;8.20;7.00;;;6.70;1.00;;;;;;5056341;28;20636;-85
2023/12/20 01:13:20;;;;;;;8.00;7.10;;;6.70;1.00;;;;;;5056697;28;20215;-85
2023/12/20 01:15:47;;;;;;;7.43;6.68;;;6.70;1.00;;;;;;5046570;28;20516;-86
2023/12/20 01:18:14;;;;;;;5.85;5.25;;;6.70;1.00;;;;;;5045053;28;20222;-86
2023/12/20 01:20:42;;;;;;;6.60;6.00;;;6.70;1.00;;;;;;5044753;28;20263;-85
2023/12/20 01:23:11;;;;;;;8.87;6.77;;;6.70;1.00;;;;;;5041231;28;20454;-86
2023/12/20 01:25:38;;;;;;;7.28;6.00;;;6.70;1.00;;;;;;5041036;28;20483;-86
2023/12/20 01:28:05;;;;;;;7.35;6.38;;;6.70;1.00;;;;;;5047960;28;20199;-85
2023/12/20 01:30:32;;;;;;;7.45;6.07;;;6.70;1.00;;;;;;5047504;28;20200;-85
2023/12/20 01:33:00;;;;;;;7.20;6.50;;;6.70;1.00;;;;;;5041135;28;20314;-86
2023/12/20 01:35:27;;;;;;;6.90;6.20;;;6.70;1.00;;;;;;5038335;28;20234;-86
2023/12/20 01:37:56;;;;;;;6.10;5.47;;;6.60;1.00;;;;;;5040247;28;20218;-85
2023/12/20 01:40:24;;;;;;;6.60;6.00;;;6.70;1.00;;;;;;5039329;28;20664;-85
2023/12/20 01:42:59;;;;;;;7.80;6.47;;;6.70;1.00;;;;;;5039714;28;20651;-85
2023/12/20 01:45:26;;;;;;;6.13;5.63;;;6.70;1.00;;;;;;5043282;28;20238;-86
2023/12/20 01:47:53;;;;;;;7.10;6.30;;;6.70;1.00;;;;;;5048398;28;20432;-86
2023/12/20 01:50:21;;;;;;;6.55;5.88;;;6.70;1.00;;;;;;5043440;28;20450;-85
2023/12/20 01:52:48;;;;;;;8.07;6.05;;;6.60;1.00;;;;;;5039029;28;20329;-85
2023/12/20 01:55:17;;;;;;;7.00;5.83;;;6.60;1.00;;;;;;5050631;28;20287;-85
2023/12/20 01:57:47;;;;;;;4.97;4.47;;;6.60;1.00;;;;;;5056358;28;20442;-86
2023/12/20 02:00:15;;;;;;;6.85;5.82;;;6.70;1.00;;;;;;5056039;28;20259;-85
2023/12/20 02:02:43;;;;;;;5.72;5.22;;;6.70;1.00;;;;;;5040115;28;20714;-87
2023/12/20 02:05:11;;;;;;;7.80;6.15;;;6.60;1.00;;;;;;5037961;28;20231;-86
2023/12/20 02:07:38;;;;;;;5.90;5.20;;;6.60;1.00;;;;;;5038040;28;20294;-86
2023/12/20 02:10:06;;;;;;;5.63;5.13;;;6.60;1.00;;;;;;5038467;28;20265;-86
2023/12/20 02:12:34;;;;;;;6.03;4.95;;;6.60;1.00;;;;;;5040578;28;20485;-87
2023/12/20 02:15:03;;;;;;;6.53;5.90;;;6.80;1.00;;;;;;5038902;28;20220;-86
2023/12/20 02:17:32;;;;;;;7.30;5.03;;;6.70;1.00;;;;;;5036483;28;20349;-87
2023/12/20 02:19:59;;;;;;;6.23;5.13;;;6.70;1.00;;;;;;5036989;28;20477;-87
2023/12/20 02:22:27;;;;;;;6.43;5.83;;;6.70;1.00;;;;;;5038759;28;20525;-86
2023/12/20 02:24:54;;;;;;;5.82;5.10;;;6.70;1.00;;;;;;5036464;28;20513;-86
2023/12/20 02:27:22;;;;;;;6.20;5.60;;;6.80;1.00;;;;;;5036456;28;20206;-86
2023/12/20 02:29:50;;;;;;;6.40;5.80;;;6.80;1.00;;;;;;5036590;28;20417;-87
2023/12/20 02:32:18;;;;;;;5.68;4.82;;;6.80;1.00;;;;;;5036843;28;20737;-86
2023/12/20 02:34:45;;;;;;;6.15;5.57;;;6.80;1.00;;;;;;5044590;28;20224;-86
2023/12/20 02:37:12;;;;;;;7.10;5.87;;;6.80;1.00;;;;;;5051617;28;20207;-87
2023/12/20 02:39:40;;;;;;;5.95;5.35;;;6.80;1.00;;;;;;5044878;28;20442;-87
2023/12/20 02:42:07;;;;;;;7.00;5.97;;;6.80;1.00;;;;;;5045702;28;20267;-87
2023/12/20 02:44:34;;;;;;;7.00;6.07;;;6.80;1.00;;;;;;5053796;28;20470;-86
2023/12/20 02:47:01;;;;;;;7.27;6.60;;;6.80;1.00;;;;;;5051747;28;20246;-85
2023/12/20 02:49:28;;;;;;;8.80;6.57;;;6.80;1.00;;;;;;5054749;28;20427;-86
2023/12/20 02:51:54;;;;;;;8.63;7.75;;;6.80;1.00;;;;;;5040620;28;20455;-85
2023/12/20 02:54:21;;;;;;;9.57;7.70;;;6.80;1.00;;;;;;5038015;28;20235;-86
2023/12/20 02:56:50;;;;;;;8.90;7.47;;;6.80;1.00;;;;;;5038757;28;20527;-86
2023/12/20 02:59:17;;;;;;;8.70;6.37;;;6.80;1.00;;;;;;5050211;28;20466;-85
2023/12/20 03:01:44;;;;;;;9.53;7.53;;;6.80;1.00;;;;;;5059579;28;20419;-85
2023/12/20 03:04:11;;;;;;;8.37;7.47;;;6.90;1.00;;;;;;5048024;28;20511;-86
2023/12/20 03:06:39;;;;;;;9.87;7.63;;;6.80;1.00;;;;;;5041544;28;20534;-86
2023/12/20 03:09:06;;;;;;;9.57;7.30;;;6.80;1.00;;;;;;5041853;28;20442;-85
2023/12/20 03:11:33;;;;;;;8.43;7.20;;;6.70;1.00;;;;;;5040308;28;20550;-86
2023/12/20 03:14:01;;;;;;;6.65;5.90;;;6.70;1.00;;;;;;5043358;28;20513;-85
2023/12/20 03:16:27;;;;;;;7.30;5.23;;;6.70;1.00;;;;;;5041621;28;20227;-87
2023/12/20 03:18:54;;;;;;;6.20;5.00;;;6.80;1.00;;;;;;5046029;28;20875;-86
2023/12/20 03:21:21;;;;;;;6.45;5.88;;;6.80;1.00;;;;;;5047392;28;20821;-86
2023/12/20 03:23:49;;;;;;;6.40;5.80;;;6.80;1.00;;;;;;5042873;28;20204;-86
2023/12/20 03:26:16;;;;;;;9.15;5.22;;;6.90;1.00;;;;;;5069887;22;20235;-85
2023/12/20 03:28:44;;;;;;;6.82;4.97;;;6.90;1.00;;;;;;5058969;28;20212;-85
2023/12/20 03:31:12;;;;;;;6.13;4.80;;;6.90;1.00;;;;;;5047389;28;20199;-87
2023/12/20 03:33:39;;;;;;;6.05;3.47;;;6.90;1.00;;;;;;5053326;28;20528;-86
2023/12/20 03:36:06;;;;;;;7.97;4.87;;;6.90;1.00;;;;;;5046463;28;20238;-88
2023/12/20 03:38:33;;;;;;;9.27;4.57;;;6.80;1.00;;;;;;5045638;28;20805;-87
2023/12/20 03:41:00;;;;;;;6.45;5.20;;;6.80;1.00;;;;;;5048719;28;20208;-87
2023/12/20 03:43:27;;;;;;;5.65;4.05;;;6.80;1.00;;;;;;5056383;28;20203;-85
2023/12/20 03:45:53;;;;;;;10.32;4.78;;;6.80;1.00;;;;;;5056468;28;20299;-86
2023/12/20 03:48:21;;;;;;;4.85;3.10;;;6.80;1.00;;;;;;5055669;28;20227;-86
2023/12/20 03:50:48;;;;;;;10.75;4.00;;;6.80;1.00;;;;;;5056761;28;20295;-86
2023/12/20 03:53:15;;;;;;;5.33;3.80;;;6.80;1.00;;;;;;5051996;28;20287;-86
2023/12/20 03:55:42;;;;;;;7.20;5.40;;;6.80;1.00;;;;;;5054868;28;20463;-86
2023/12/20 03:58:09;;;;;;;9.13;6.10;;;6.90;1.00;;;;;;5055334;28;20417;-87
2023/12/20 04:00:35;;;;;;;10.77;5.90;;;6.90;1.00;;;;;;5055739;28;20465;-87
2023/12/20 04:03:02;;;;;;;5.70;3.70;;;6.90;1.00;;;;;;5055361;28;20474;-86
2023/12/20 04:05:31;;;;;;;5.63;3.30;;;6.90;1.00;;;;;;5055985;28;20448;-86
2023/12/20 04:07:57;;;;;;;5.10;3.13;;;6.80;1.00;;;;;;5056318;28;20235;-86
2023/12/20 04:10:24;;;;;;;6.05;2.95;;;6.80;99.90;;;;;;5055223;28;20231;-86
2023/12/20 04:12:51;;;;;;;6.90;3.60;;;6.80;99.90;;;;;;5055587;28;20235;-86
2023/12/20 04:15:18;;;;;;;5.03;3.30;;;6.80;99.90;;;;;;5057202;28;20493;-85
2023/12/20 04:17:44;;;;;;;8.05;3.08;;;6.80;99.90;;;;;;5048192;28;20243;-87
2023/12/20 04:20:11;;;;;;;6.53;3.27;;;6.70;99.90;;;;;;5043426;28;20208;-87
2023/12/20 04:22:40;;;;;;;8.07;3.37;;;6.70;99.90;;;;;;5043012;28;20522;-86
2023/12/20 04:25:07;;;;;;;5.13;2.95;;;6.70;99.90;;;;;;5050244;28;20998;-85
2023/12/20 04:27:34;;;;;;;5.23;3.97;;;6.70;99.90;;;;;;5057674;28;20192;-85
2023/12/20 04:30:00;;;;;;;12.45;3.10;;;6.70;99.90;;;;;;5055149;28;20498;-86
2023/12/20 04:32:27;;;;;;;6.07;3.60;;;6.60;99.90;;;;;;5047296;28;20271;-87
2023/12/20 04:34:54;;;;;;;5.80;2.80;;;6.70;99.90;;;;;;5046190;28;20456;-86
2023/12/20 04:37:21;;;;;;;5.38;2.85;;;6.60;99.90;;;;;;5046763;28;20545;-86
2023/12/20 04:39:50;;;;;;;9.18;3.00;;;6.50;99.90;;;;;;5045431;28;20270;-86
2023/12/20 04:42:16;;;;;;;5.03;2.50;;;6.30;99.90;;;;;;5044419;28;20298;-86
2023/12/20 04:44:43;;;;;;;7.20;3.58;;;6.40;99.90;;;;;;5043287;28;20203;-86
2023/12/20 04:47:10;;;;;;;3.92;2.30;;;6.30;99.90;;;;;;5048403;28;20202;-85
2023/12/20 04:49:37;;;;;;;6.22;2.90;;;6.20;99.90;;;;;;5056206;28;20227;-85
2023/12/20 04:52:04;;;;;;;3.45;3.10;;;6.10;99.90;;;;;;5052035;28;20628;-86
2023/12/20 04:54:31;;;;;;;5.70;2.45;;;6.10;99.90;;;;;;5043652;28;20247;-86
2023/12/20 04:56:59;;;;;;;7.80;2.80;;;6.10;99.90;;;;;;5044426;28;20290;-86
2023/12/20 04:59:26;;;;;;;9.20;3.83;;;6.00;99.90;;;;;;5044589;28;20294;-86
2023/12/20 05:01:53;;;;;;;4.60;3.08;;;6.00;99.90;;;;;;5045005;28;20270;-86
2023/12/20 05:04:20;;;;;;;5.28;3.05;;;6.00;99.90;;;;;;5042761;28;20204;-86
2023/12/20 05:06:47;;;;;;;6.97;3.83;;;6.00;99.90;;;;;;5040823;28;20277;-87
2023/12/20 05:09:14;;;;;;;6.88;3.40;;;5.90;99.90;;;;;;5041035;28;20211;-86
2023/12/20 05:11:40;;;;;;;6.72;3.58;;;5.90;99.90;;;;;;5043254;28;20739;-86
2023/12/20 05:14:08;;;;;;;9.07;2.75;;;6.00;99.90;;;;;;5043495;28;20245;-86
2023/12/20 05:16:35;;;;;;;4.82;2.72;;;6.00;99.90;;;;;;5042747;28;20314;-86
2023/12/20 05:19:06;;;;;;;6.97;3.35;;;6.00;99.90;;;;;;5043009;28;20234;-87
2023/12/20 05:21:33;;;;;;;4.80;2.90;;;5.90;99.90;;;;;;5056350;28;20188;-84
2023/12/20 05:24:00;;;;;;;10.65;3.13;;;5.90;99.90;;;;;;5056934;28;20204;-86
2023/12/20 05:26:27;;;;;;;4.72;2.83;;;6.00;99.90;;;;;;5048727;28;20242;-85
2023/12/20 05:28:53;;;;;;;6.85;2.75;;;6.00;99.90;;;;;;5056922;28;20271;-84
2023/12/20 05:31:22;;;;;;;6.93;2.75;;;6.10;99.90;;;;;;5056729;28;20212;-86
2023/12/20 05:33:48;;;;;;;4.90;2.28;;;6.00;99.90;;;;;;5051484;28;20223;-87
2023/12/20 05:36:15;;;;;;;8.77;2.53;;;6.00;99.90;;;;;;5043339;28;20663;-86
2023/12/20 05:38:42;;;;;;;5.38;4.22;;;5.90;99.90;;;;;;5047518;28;20271;-85
2023/12/20 05:41:09;;;;;;;6.78;2.60;;;5.80;99.90;;;;;;5051262;28;20200;-86
2023/12/20 05:43:36;;;;;;;5.93;3.00;;;5.90;99.90;;;;;;5047514;28;20263;-86
2023/12/20 05:46:02;;;;;;;9.18;2.95;;;5.80;99.90;;;;;;5044795;28;20250;-87
2023/12/20 05:48:31;;;;;;;4.40;2.70;;;5.70;99.90;;;;;;5043768;28;20294;-87
2023/12/20 05:50:58;;;;;;;8.90;2.72;;;5.60;99.90;;;;;;5042093;28;20207;-88
2023/12/20 05:53:25;;;;;;;4.82;2.50;;;5.60;99.90;;;;;;5042278;28;20319;-87
2023/12/20 05:55:52;;;;;;;10.63;2.95;;;5.50;99.90;;;;;;5050296;28;20227;-87
2023/12/20 05:58:19;;;;;;;6.85;4.57;;;5.50;99.90;;;;;;5040924;28;20239;-87
2023/12/20 06:00:46;;;;;;;4.50;2.47;;;5.40;99.90;;;;;;5041563;28;20203;-87
2023/12/20 06:03:12;;;;;;;11.85;2.78;;;5.40;99.90;;;;;;5041854;28;20210;-87
2023/12/20 06:05:41;;;;;;;4.82;2.10;;;5.40;99.90;;;;;;5043120;28;20227;-86
2023/12/20 06:08:08;;;;;;;10.82;2.92;;;5.40;99.90;;;;;;5042630;28;20209;-86
2023/12/20 06:10:34;;;;;;;2.70;2.28;;;5.40;99.90;;;;;;5041818;28;20208;-87
2023/12/20 06:13:01;;;;;;;14.10;2.80;;;5.40;99.90;;;;;;5042326;28;20734;-87
2023/12/20 06:15:28;;;;;;;7.93;2.38;;;5.30;99.90;;;;;;5041154;28;20286;-87
2023/12/20 06:17:55;;;;;;;9.05;2.63;;;5.40;99.90;;;;;;5040156;28;20203;-86
2023/12/20 06:20:22;;;;;;;4.50;2.40;;;5.40;99.90;;;;;;5040144;28;20203;-87
2023/12/20 06:22:50;;;;;;;4.22;2.58;;;5.30;99.90;;;;;;5049990;28;20239;-85
2023/12/20 06:25:17;;;;;;;7.65;3.03;;;5.40;99.90;;;;;;5058028;28;20227;-86
2023/12/20 06:27:44;;;;;;;5.22;2.25;;;5.30;99.90;;;;;;5049462;28;20219;-87
2023/12/20 06:30:11;;;;;;;8.00;3.55;;;5.40;99.90;;;;;;5047758;28;20208;-87
2023/12/20 06:32:39;;;;;;;7.80;3.10;;;5.40;99.90;;;;;;5054061;28;20208;-86
2023/12/20 06:35:07;;;;;;;5.75;2.72;;;5.40;99.90;;;;;;5048745;28;20234;-87
2023/12/20 06:37:34;;;;;;;5.70;3.30;;;5.40;99.90;;;;;;5040045;28;20226;-86
2023/12/20 06:40:02;;;;;;;8.13;4.30;;;5.40;89.50;;;;;;5041808;28;20207;-87
2023/12/20 06:42:29;;;;;;;7.88;3.00;;;5.30;93.60;;;;;;5037398;28;20199;-87
2023/12/20 06:44:56;;;;;;;9.35;3.90;;;5.40;99.90;;;;;;5048722;28;20223;-86
2023/12/20 06:47:22;;;;;;;5.15;2.80;;;5.40;98.30;;;;;;5051196;28;20290;-86
2023/12/20 06:49:52;;;;;;;7.57;3.25;;;5.40;99.90;;;;;;5040537;28;20203;-88
2023/12/20 06:52:19;;;;;;;9.05;3.83;;;5.40;86.00;;;;;;5039494;28;20286;-87
2023/12/20 06:54:46;;;;;;;10.63;3.10;;;5.40;90.10;;;;;;5039308;28;20223;-87
2023/12/20 06:57:14;;;;;;;5.13;3.20;;;5.50;99.90;;;;;;5039241;28;20728;-87
2023/12/20 06:59:41;;;;;;;17.20;4.07;;;5.50;99.90;;;;;;5039100;28;20208;-87
2023/12/20 07:02:09;;;;;;;7.22;3.28;;;5.70;99.90;;;;;;5039523;28;20207;-87
2023/12/20 07:04:39;;;;;;;3.83;2.85;;;5.60;17.40;;;;;;5039253;28;20203;-87
2023/12/20 07:07:07;;;;;;;12.63;4.15;;;5.50;13.50;;;;;;5038581;28;20191;-87
2023/12/20 07:09:33;;;;;;;6.68;2.42;;;5.50;9.80;;;;;;5038669;28;20214;-87
2023/12/20 07:12:00;;;;;;;9.50;3.95;;;5.50;28.60;;;;;;5038519;28;20210;-87
2023/12/20 07:14:29;;;;;;;10.10;4.65;;;5.50;19.20;;;;;;5038184;28;20230;-86
2023/12/20 07:16:55;;;;;;;10.10;4.05;;;5.60;23.30;;;;;;5036992;28;20314;-87
2023/12/20 07:19:22;;;;;;;4.13;3.50;;;5.50;1.00;;;;;;5042853;28;20719;-86
2023/12/20 07:21:49;;;;;;;9.70;5.10;;;5.60;1.00;;;;;;5039279;28;20203;-87
2023/12/20 07:24:16;;;;;;;4.28;3.40;;;5.60;1.00;;;;;;5038355;28;20204;-86
2023/12/20 07:26:43;;;;;;;9.38;3.47;;;5.60;1.00;;;;;;5037698;28;20237;-86
2023/12/20 07:29:10;;;;;;;5.53;3.13;;;5.60;1.00;;;;;;5036998;28;20200;-86
2023/12/20 07:31:38;;;;;;;12.70;3.88;;;5.60;1.00;;;;;;5049019;28;20230;-86
2023/12/20 07:34:05;;;;;;;5.85;2.65;;;5.60;1.00;;;;;;5051826;28;20262;-86
2023/12/20 07:36:32;;;;;;;9.32;3.97;;;5.60;1.00;;;;;;5053633;28;20250;-87
2023/12/20 07:38:59;;;;;;;5.57;3.67;;;5.70;1.00;;;;;;5055433;28;20715;-87
2023/12/20 07:41:25;;;;;;;5.53;3.35;;;5.60;1.00;;;;;;5056655;28;20191;-87
2023/12/20 07:43:53;;;;;;;11.23;5.57;;;5.70;1.00;;;;;;5056823;28;20187;-86
2023/12/20 07:46:23;;;;;;;9.40;3.38;;;5.70;1.00;;;;;;5056117;28;20273;-86
2023/12/20 07:48:51;;;;;;;5.22;2.92;;;5.70;1.00;;;;;;5053297;28;20203;-86
2023/12/20 07:51:18;;;;;;;9.20;2.95;;;5.70;1.00;;;;;;5049664;28;20235;-86
2023/12/20 07:53:45;;;;;;;4.38;2.75;;;5.70;1.00;;;;;;5053558;28;20283;-88
2023/12/20 07:56:16;;;;;;;5.75;3.00;;;5.80;1.00;;;;;;5046273;28;20326;-88
2023/12/20 07:58:43;;;;;;;8.25;2.97;;;5.80;1.00;;;;;;5046112;28;20207;-88
2023/12/20 08:01:10;;;;;;;9.77;3.30;;;5.80;1.00;;;;;;5049985;28;20214;-86
2023/12/20 08:03:36;;;;;;;7.45;2.60;;;5.80;1.00;;;;;;5043714;28;20645;-87
2023/12/20 08:06:05;;;;;;;4.07;2.33;;;5.80;1.00;;;;;;5043099;28;20314;-87
2023/12/20 08:08:32;;;;;;;3.53;2.60;;;5.80;1.00;;;;;;5047031;28;20204;-86
2023/12/20 08:11:00;;;;;;;7.82;3.40;;;5.80;1.00;;;;;;5045549;28;20294;-87
2023/12/20 08:13:27;;;;;;;6.70;2.90;;;5.70;1.00;;;;;;5042856;28;20203;-87
2023/12/20 08:15:55;;;;;;;8.13;2.80;;;5.80;1.00;;;;;;5040767;28;20579;-87
2023/12/20 08:18:22;;;;;;;4.97;3.45;;;5.80;1.00;;;;;;5041396;28;20208;-86
2023/12/20 08:20:49;;;;;;;5.80;2.78;;;5.90;1.00;;;;;;5041316;28;20283;-86
2023/12/20 08:23:17;;;;;;;4.70;3.10;;;5.80;1.00;;;;;;5041231;28;20300;-88
2023/12/20 08:25:44;;;;;;;7.57;2.35;;;5.80;1.00;;;;;;5039353;28;20228;-86
2023/12/20 08:28:11;;;;;;;7.90;3.15;;;5.80;1.00;;;;;;5040921;28;20220;-87
2023/12/20 08:30:38;;;;;;;4.82;2.30;;;5.70;1.00;;;;;;5039840;28;20207;-86
2023/12/20 08:33:07;;;;;;;7.63;3.33;;;5.80;1.00;;;;;;5050606;28;20234;-86
2023/12/20 08:35:34;;;;;;;7.75;2.40;;;5.70;1.00;;;;;;5047351;28;20636;-86
2023/12/20 08:38:01;;;;;;;8.43;2.90;;;5.70;1.00;;;;;;5057388;28;20199;-86
2023/12/20 08:40:29;;;;;;;6.78;3.13;;;5.70;1.00;;;;;;5042457;28;20235;-86
2023/12/20 08:42:56;;;;;;;5.50;3.25;;;5.80;99.90;;;;;;5041911;28;20275;-89
2023/12/20 08:45:23;;;;;;;5.32;3.08;;;5.80;1.00;;;;;;5051320;28;20227;-89
2023/12/20 08:47:49;;;;;;;7.55;2.60;;;5.80;99.90;;;;;;5046624;28;20688;-88
2023/12/20 08:50:16;;;;;;;6.28;2.72;;;5.90;99.90;;;;;;5045741;28;20675;-88
2023/12/20 08:52:43;;;;;;;11.02;3.00;;;5.90;99.90;;;;;;5043870;28;20271;-87
2023/12/20 08:55:10;;;;;;;4.22;2.75;;;6.00;1.00;;;;;;5041307;28;20228;-87
2023/12/20 08:57:38;;;;;;;10.93;3.20;;;6.00;99.90;;;;;;5039584;28;20540;-87
2023/12/20 09:00:07;;;;;;;6.03;2.33;;;6.10;99.90;;;;;;5040544;28;20218;-86
2023/12/20 09:02:35;;;;;;;2.53;2.20;;;6.10;99.90;;;;;;5051727;28;20204;-86
2023/12/20 09:05:03;;;;;;;5.38;3.45;;;6.00;99.90;;;;;;5039413;28;20729;-87
2023/12/20 09:07:30;;;;;;;5.32;2.90;;;6.00;99.90;;;;;;5039479;28;20556;-86
2023/12/20 09:09:58;;;;;;;3.83;2.30;;;6.00;99.90;;;;;;5046835;28;20644;-87
2023/12/20 09:12:25;;;;;;;9.20;2.55;;;6.00;99.90;;;;;;5046785;28;20238;-85
2023/12/20 09:14:53;;;;;;;11.13;3.10;;;6.10;99.90;;;;;;5042053;28;20226;-86
2023/12/20 09:17:22;;;;;;;9.70;3.33;;;6.10;99.90;;;;;;5041894;28;20242;-86
2023/12/20 09:19:49;;;;;;;8.32;2.42;;;6.10;99.90;;;;;;5040723;28;20269;-86
2023/12/20 09:22:17;;;;;;;4.70;2.90;;;6.20;99.90;;;;;;5058805;28;20180;-86
2023/12/20 09:24:44;;;;;;;5.53;3.05;;;6.30;99.90;;;;;;5059424;28;20204;-85
2023/12/20 09:27:11;;;;;;;9.93;3.20;;;6.30;99.90;;;;;;5047499;28;20191;-87
2023/12/20 09:29:38;;;;;;;4.93;3.30;;;6.30;99.90;;;;;;5043379;28;20208;-86
2023/12/20 09:32:07;;;;;;;12.52;2.63;;;6.30;99.90;;;;;;5041043;28;20620;-85
2023/12/20 09:34:34;;;;;;;3.67;2.60;;;6.40;99.90;;;;;;5040111;28;20642;-87
2023/12/20 09:37:02;;;;;;;5.13;2.63;;;6.30;99.90;;;;;;5040581;28;20224;-87
2023/12/20 09:39:31;;;;;;;9.35;3.10;;;6.30;99.90;;;;;;5041463;28;20203;-87
2023/12/20 09:42:02;;;;;;;8.65;3.30;;;6.20;99.90;;;;;;5042064;28;20208;-87
2023/12/20 09:44:29;;;;;;;6.10;2.95;;;6.30;99.90;;;;;;5040586;28;20271;-87
2023/12/20 09:46:57;;;;;;;6.00;2.78;;;6.30;99.90;;;;;;5041000;28;20295;-86
2023/12/20 09:49:28;;;;;;;7.03;3.35;;;6.30;99.90;;;;;;5039915;28;20279;-88
2023/12/20 09:51:55;;;;;;;7.40;2.80;;;6.30;99.90;;;;;;5038849;28;20275;-87
2023/12/20 09:54:23;;;;;;;6.85;3.35;;;6.30;99.90;;;;;;5039466;28;20223;-88
2023/12/20 09:56:50;;;;;;;6.95;3.03;;;6.30;99.90;;;;;;5040917;28;20287;-86
2023/12/20 09:59:17;;;;;;;13.45;6.80;;;6.30;99.90;;;;;;5047129;28;20207;-86
2023/12/20 10:01:44;;;;;;;4.93;2.85;;;6.30;99.90;;;;;;5040223;28;20206;-87
2023/12/20 10:04:13;;;;;;;6.35;3.58;;;6.40;99.90;;;;;;5039764;28;20618;-88
2023/12/20 10:06:42;;;;;;;4.38;2.53;;;6.40;99.90;;;;;;5040334;28;20223;-88
2023/12/20 10:09:09;;;;;;;9.27;3.55;;;6.30;99.90;;;;;;5040223;28;20639;-86
2023/12/20 10:11:37;;;;;;;11.50;2.70;;;6.40;99.90;;;;;;5039864;28;20242;-86
2023/12/20 10:14:04;;;;;;;4.22;2.75;;;6.40;99.90;;;;;;5042480;28;20208;-86
2023/12/20 10:16:32;;;;;;;6.40;3.03;;;6.40;99.90;;;;;;5040005;28;20292;-87
2023/12/20 10:19:00;;;;;;;7.55;2.80;;;6.40;57.90;;;;;;5050783;28;20269;-86
2023/12/20 10:21:27;;;;;;;5.72;2.90;;;6.40;31.10;;;;;;5052527;28;20214;-88
2023/12/20 10:23:55;;;;;;;9.85;3.10;;;6.50;11.20;;;;;;5052706;28;20211;-88
2023/12/20 10:26:22;;;;;;;6.43;3.95;;;6.40;22.20;;;;;;5056759;28;20235;-87
2023/12/20 10:28:52;;;;;;;7.07;3.15;;;6.50;56.90;;;;;;5058149;28;20220;-87
2023/12/20 10:31:30;;;;;;;12.15;3.60;;;6.50;1.00;;;;;;5056983;28;20196;-87
2023/12/20 10:34:01;;;;;;;6.30;3.40;;;6.50;1.00;;;;;;5057397;28;20205;-87
2023/12/20 10:36:31;;;;;;;6.25;2.60;;;6.50;1.00;;;;;;5058010;28;20249;-87
2023/12/20 10:39:01;;;;;;;6.55;3.28;;;6.50;1.00;;;;;;5058194;28;20246;-87
2023/12/20 10:41:29;;;;;;;5.57;3.60;;;6.50;1.00;;;;;;5047373;28;20263;-87
2023/12/20 10:43:59;;;;;;;5.50;2.70;;;6.60;1.00;;;;;;5039082;28;20274;-87
2023/12/20 10:46:28;;;;;;;5.45;2.53;;;6.60;1.00;;;;;;5041631;28;20224;-87
2023/12/20 10:48:55;;;;;;;4.72;3.25;;;6.70;1.00;;;;;;5054497;28;20204;-87
2023/12/20 10:51:24;;;;;;;10.93;3.47;;;6.70;1.00;;;;;;5056641;28;20203;-87
2023/12/20 10:53:51;;;;;;;13.00;4.25;;;6.80;1.00;;;;;;5056353;28;20234;-87
2023/12/20 10:56:21;;;;;;;10.07;3.10;;;6.90;1.00;;;;;;5054639;28;20296;-87
2023/12/20 10:58:49;;;;;;;9.77;2.83;;;6.90;1.00;;;;;;5055999;28;20210;-86
2023/12/20 11:01:18;;;;;;;8.00;3.22;;;6.90;1.00;;;;;;5053123;28;20206;-87
2023/12/20 11:03:49;;;;;;;5.20;3.30;;;6.80;1.00;;;;;;5049093;28;20203;-87
2023/12/20 11:06:27;;;;;;;6.65;3.75;;;6.80;1.00;;;;;;5044705;28;20262;-87
2023/12/20 11:09:10;;;;;;;7.15;3.20;;;6.80;99.90;;;;;;5043086;28;20235;-87
2023/12/20 11:11:48;;;;;;;11.35;3.20;;;6.80;99.90;;;;;;5042871;28;20230;-86
2023/12/20 11:14:19;;;;;;;11.07;3.22;;;6.80;1.00;;;;;;5041070;28;20614;-87
2023/12/20 11:16:46;;;;;;;9.75;4.15;;;6.80;1.00;;;;;;5039429;28;20319;-86
2023/12/20 11:19:14;;;;;;;9.20;3.50;;;6.80;1.00;;;;;;5039651;28;20326;-86
2023/12/20 11:21:41;;;;;;;7.18;3.55;;;6.80;1.00;;;;;;5040829;28;20208;-87
2023/12/20 11:24:08;;;;;;;10.00;3.35;;;6.80;1.00;;;;;;5047688;28;20214;-86
2023/12/20 11:26:35;;;;;;;7.95;3.00;;;6.70;1.00;;;;;;5047467;28;20231;-86
2023/12/20 11:29:34;;;;;;;10.68;4.20;;;6.70;1.00;;;;;;5040477;28;20585;-85
2023/12/20 11:32:02;;;;;;;4.60;2.85;;;6.80;1.00;;;;;;5038275;28;20211;-86
2023/12/20 11:34:32;;;;;;;5.65;3.05;;;6.70;1.00;;;;;;5052502;28;20204;-87
2023/12/20 11:37:00;;;;;;;4.13;3.83;;;6.70;1.00;;;;;;5052403;28;20283;-85
2023/12/20 11:39:28;;;;;;;16.15;7.80;;;6.70;1.00;;;;;;5042320;28;20211;-87
2023/12/20 11:41:57;;;;;;;8.68;3.30;;;6.70;55.80;;;;;;5040757;28;20690;-87
2023/12/20 11:44:26;;;;;;;8.82;3.33;;;6.70;50.60;;;;;;5040388;28;20684;-87
2023/12/20 11:46:55;;;;;;;6.88;3.97;;;6.60;51.80;;;;;;5041047;28;20344;-87
2023/12/20 11:49:25;;;;;;;4.88;3.28;;;6.60;1.00;;;;;;5052531;28;20208;-88
2023/12/20 11:51:52;;;;;;;6.00;2.60;;;6.60;1.00;;;;;;5059660;28;20204;-87
2023/12/20 11:54:19;;;;;;;7.63;2.85;;;6.60;1.00;;;;;;5059225;28;20231;-86
2023/12/20 11:56:47;;;;;;;6.15;3.05;;;6.60;1.00;;;;;;5059777;28;20224;-86
2023/12/20 11:59:14;;;;;;;5.65;3.05;;;6.60;1.00;;;;;;5060124;28;20214;-86
2023/12/20 12:01:41;;;;;;;3.63;2.95;;;6.60;1.00;;;;;;5050923;28;20287;-87
2023/12/20 12:04:10;;;;;;;9.80;3.80;;;6.60;1.00;;;;;;5045668;28;20231;-88
2023/12/20 12:06:37;;;;;;;7.78;3.17;;;6.70;1.00;;;;;;5048096;28;20239;-86
2023/12/20 12:09:04;;;;;;;7.15;3.60;;;6.70;70.60;;;;;;5056484;28;20576;-86
2023/12/20 12:11:31;;;;;;;11.55;3.60;;;6.60;23.20;;;;;;5049590;28;20207;-88
2023/12/20 12:13:58;;;;;;;7.00;3.17;;;6.70;93.70;;;;;;5048255;28;20290;-86
2023/12/20 12:16:25;;;;;;;10.73;3.55;;;6.70;6.30;;;;;;5043777;28;20318;-86
2023/12/20 12:19:00;;;;;;;5.57;3.17;;;6.70;1.00;;;;;;5048032;28;20214;-86
2023/12/20 12:21:28;;;;;;;3.88;2.75;;;6.70;1.00;;;;;;5060380;28;20183;-87
2023/12/20 12:24:06;;;;;;;5.47;3.80;;;6.60;1.00;;;;;;5057305;28;20203;-87
2023/12/20 12:26:33;;;;;;;10.32;3.15;;;6.70;1.00;;;;;;5054913;28;20220;-88
2023/12/20 12:29:00;;;;;;;5.30;3.17;;;6.70;1.00;;;;;;5051672;28;20291;-87
2023/12/20 12:31:27;;;;;;;9.25;3.17;;;6.80;1.00;;;;;;5044683;28;20206;-87
2023/12/20 12:33:54;;;;;;;4.07;2.60;;;6.80;1.00;;;;;;5043311;28;20298;-86
2023/12/20 12:36:21;;;;;;;7.15;4.05;;;6.80;1.00;;;;;;5045211;28;20223;-88
2023/12/20 12:38:49;;;;;;;4.05;3.10;;;6.70;1.00;;;;;;5042068;28;20246;-86
2023/12/20 12:41:16;;;;;;;8.75;2.85;;;6.60;53.70;;;;;;5042817;28;20204;-88
2023/12/20 12:43:43;;;;;;;10.18;3.38;;;6.60;99.90;;;;;;5042252;28;20214;-87
2023/12/20 12:46:10;;;;;;;6.00;2.70;;;6.50;99.90;;;;;;5042082;28;20255;-87
2023/12/20 12:48:36;;;;;;;6.47;3.65;;;6.40;99.90;;;;;;5042195;28;20211;-87
2023/12/20 12:51:04;;;;;;;7.82;3.42;;;6.40;99.90;;;;;;5042801;28;20250;-86
2023/12/20 12:53:30;;;;;;;3.75;2.92;;;6.40;99.90;;;;;;5043188;28;20216;-87
2023/12/20 12:55:59;;;;;;;10.88;4.35;;;6.40;99.90;;;;;;5043152;28;20251;-88
2023/12/20 12:58:26;;;;;;;4.75;2.92;;;6.30;99.90;;;;;;5041914;28;20203;-87
2023/12/20 13:00:53;;;;;;;8.40;3.67;;;6.30;1.00;;;;;;5043376;28;20211;-87
2023/12/20 13:03:20;;;;;;;8.52;4.68;;;6.30;1.00;;;;;;5047045;28;20231;-87
2023/12/20 13:05:47;;;;;;;11.35;3.53;;;6.30;1.00;;;;;;5047448;28;20219;-87